createdAt,value
2023-02-19T00:00:07.091Z,4.9
2023-02-19T00:05:02.216Z,5.4
2023-02-19T00:10:01.074Z,5.0
2023-02-19T00:15:01.470Z,5.3
2023-02-19T00:20:01.085Z,5.2
2023-02-19T00:25:01.076Z,5.0
2023-02-19T00:30:02.063Z,4.2
2023-02-19T00:40:01.686Z,4.6
2023-02-19T00:45:07.398Z,4.9
2023-02-19T00:50:01.055Z,5.2
2023-02-19T00:55:01.057Z,5.6
2023-02-19T01:00:03.410Z,5.4
2023-02-19T01:05:02.034Z,4.9
2023-02-19T01:10:01.233Z,4.6
2023-02-19T01:15:07.905Z,4.7
2023-02-19T01:20:01.064Z,4.1
2023-02-19T01:25:01.943Z,4.0
2023-02-19T01:30:01.777Z,3.2
2023-02-19T01:35:01.092Z,3.1
2023-02-19T01:40:06.064Z,2.9
2023-02-19T01:45:18.945Z,2.8
2023-02-19T01:50:06.132Z,2.7
2023-02-19T01:55:01.067Z,2.6
2023-02-19T02:00:04.817Z,2.7
2023-02-19T02:06:06.079Z,2.8
2023-02-19T02:11:06.069Z,2.9
2023-02-19T02:21:01.064Z,3.2
2023-02-19T02:26:01.103Z,2.6
2023-02-19T02:31:01.091Z,1.9
2023-02-19T02:36:01.077Z,1.8
2023-02-19T02:41:01.082Z,1.7
2023-02-19T02:46:07.137Z,1.5
2023-02-19T02:51:01.123Z,1.3
2023-02-19T02:56:06.091Z,1.1
2023-02-19T03:01:07.310Z,0.6
2023-02-19T03:06:01.072Z,0.5
2023-02-19T03:11:01.081Z,0.4
2023-02-19T03:16:06.134Z,0.6
2023-02-19T03:21:02.397Z,0.8
2023-02-19T03:36:01.090Z,0.8
2023-02-19T03:41:06.096Z,0.7
2023-02-19T03:46:01.151Z,0.5
2023-02-19T03:51:06.066Z,0.8
2023-02-19T03:56:06.116Z,0.6
2023-02-19T04:01:01.069Z,0.8
2023-02-19T04:06:01.061Z,0.7
2023-02-19T04:16:06.063Z,0.4
2023-02-19T07:14:01.075Z,1.0
2023-02-19T07:19:02.609Z,1.3
2023-02-19T07:24:01.056Z,1.9
2023-02-19T07:29:01.053Z,2.1
2023-02-19T07:34:01.539Z,2.7
2023-02-19T07:39:01.502Z,2.2
2023-02-19T07:44:01.073Z,3.1
2023-02-19T07:49:06.607Z,5.0
2023-02-19T07:54:01.055Z,7.5
2023-02-19T07:59:01.852Z,7.6
2023-02-19T08:04:06.062Z,7.7
2023-02-19T08:09:02.846Z,6.9
2023-02-19T08:14:06.079Z,5.0
2023-02-19T08:19:01.069Z,3.9
2023-02-19T08:24:01.191Z,12.6
2023-02-19T08:29:01.066Z,13.3
2023-02-19T08:34:06.066Z,16.1
2023-02-19T08:39:06.092Z,17.1
2023-02-19T08:44:01.477Z,18.6
2023-02-19T08:49:06.072Z,10.4
2023-02-19T08:54:01.057Z,10.8
2023-02-19T08:59:01.057Z,8.4
2023-02-19T09:04:01.144Z,6.8
2023-02-19T09:09:01.502Z,3.9
2023-02-19T09:14:01.482Z,3.4
2023-02-19T09:19:06.077Z,2.0
2023-02-19T09:24:01.064Z,1.5
2023-02-19T09:29:01.930Z,1.7
2023-02-19T09:34:01.052Z,2.3
2023-02-19T09:39:06.061Z,2.2
2023-02-19T09:44:01.075Z,5.0
2023-02-19T09:49:04.866Z,7.8
2023-02-19T09:54:02.895Z,8.6
2023-02-19T09:59:06.072Z,8.0
2023-02-19T10:09:01.099Z,5.6
2023-02-19T10:14:01.066Z,3.4
2023-02-19T10:19:06.092Z,4.6
2023-02-19T10:24:01.886Z,5.3
2023-02-19T10:29:06.101Z,5.7
2023-02-19T10:34:01.716Z,5.3
2023-02-19T10:39:01.060Z,4.7
2023-02-19T10:44:01.058Z,3.3
2023-02-19T10:49:01.736Z,2.7
2023-02-19T10:54:01.074Z,2.0
2023-02-19T10:59:06.087Z,1.7
2023-02-19T11:04:01.057Z,1.5
2023-02-19T11:09:06.059Z,1.1
2023-02-19T11:14:01.061Z,1.0
2023-02-19T11:19:01.057Z,1.3
2023-02-19T11:29:01.083Z,1.5
2023-02-19T11:35:06.069Z,1.6
2023-02-19T11:40:01.079Z,1.7
2023-02-19T11:45:21.389Z,1.5
2023-02-19T11:50:01.075Z,1.9
2023-02-19T11:55:01.063Z,2.4
2023-02-19T12:00:15.452Z,3.0
2023-02-19T12:05:28.562Z,3.1
2023-02-19T12:10:01.061Z,3.5
2023-02-19T12:15:15.367Z,3.7
2023-02-19T12:20:01.096Z,3.6
2023-02-19T12:25:01.086Z,2.7
2023-02-19T12:30:06.157Z,2.6
2023-02-19T12:35:01.053Z,2.2
2023-02-19T12:40:01.069Z,2.0
2023-02-19T12:45:07.246Z,1.6
2023-02-19T12:55:01.059Z,1.5
2023-02-19T13:00:09.863Z,1.5
2023-02-19T13:05:01.175Z,1.1
2023-02-19T13:15:06.413Z,0.9
2023-02-19T13:30:10.490Z,0.8
2023-02-19T13:35:21.368Z,1.0
2023-02-19T13:45:20.473Z,1.0
2023-02-19T13:50:01.072Z,0.9
2023-02-19T13:55:01.061Z,1.0
2023-02-19T14:00:21.390Z,0.6
2023-02-19T14:05:01.109Z,0.7
2023-02-19T14:15:16.482Z,0.8
2023-02-19T14:20:01.079Z,0.6
2023-02-19T14:30:02.775Z,0.6
2023-02-19T14:35:01.064Z,0.4
2023-02-19T14:40:01.052Z,0.2
2023-02-19T14:45:05.706Z,0.3
2023-02-19T14:50:01.158Z,0.7
2023-02-19T14:55:01.056Z,0.8
2023-02-19T15:00:21.107Z,1.2
2023-02-19T15:10:02.973Z,1.3
2023-02-19T15:15:03.217Z,1.3
2023-02-19T15:20:01.061Z,1.8
2023-02-19T15:25:01.066Z,1.7
2023-02-19T15:30:01.929Z,2.3
2023-02-19T15:35:06.088Z,2.4
2023-02-19T15:40:06.074Z,2.5
2023-02-19T15:46:01.067Z,2.3
2023-02-19T15:56:06.065Z,2.6
2023-02-19T16:01:06.092Z,2.8
2023-02-19T16:06:03.204Z,2.9
2023-02-19T16:11:03.429Z,3.3
2023-02-19T16:16:01.091Z,3.5
2023-02-19T16:21:01.076Z,3.3
2023-02-19T16:26:01.088Z,3.4
2023-02-19T16:31:01.095Z,3.3
2023-02-19T16:36:01.072Z,3.2
2023-02-19T16:41:01.054Z,3.0
2023-02-19T16:46:01.121Z,3.1
2023-02-19T16:51:01.058Z,2.8
2023-02-19T17:01:01.123Z,2.7
2023-02-19T17:06:01.679Z,3.4
2023-02-19T17:11:06.083Z,3.5
2023-02-19T17:16:01.180Z,3.9
2023-02-19T17:21:06.070Z,4.7
2023-02-19T17:26:06.088Z,5.4
2023-02-19T17:31:01.062Z,5.3
2023-02-19T17:36:06.073Z,6.0
2023-02-19T17:41:01.072Z,8.0
2023-02-19T17:46:01.741Z,9.6
2023-02-19T17:51:06.066Z,10.9
2023-02-19T17:56:01.080Z,12.6
2023-02-19T18:01:01.090Z,14.2
2023-02-19T18:06:01.068Z,14.7
2023-02-19T18:11:06.071Z,16.2
2023-02-19T18:16:01.052Z,18.7
2023-02-19T18:21:01.768Z,20.2
2023-02-19T18:26:01.086Z,21.2
2023-02-19T18:31:01.156Z,20.7
2023-02-19T18:36:01.272Z,19.6
2023-02-19T18:41:01.467Z,18.7
2023-02-19T18:51:01.062Z,18.4
2023-02-19T18:56:01.065Z,18.6
2023-02-19T19:01:06.105Z,18.8
2023-02-19T19:06:01.671Z,18.2
2023-02-19T19:11:01.509Z,16.0
2023-02-19T19:16:06.827Z,15.6
2023-02-19T19:21:06.484Z,15.7
2023-02-19T19:26:01.065Z,15.2
2023-02-19T19:31:01.876Z,14.6
2023-02-19T19:36:01.074Z,15.8
2023-02-19T19:41:01.098Z,14.9
2023-02-19T19:46:01.105Z,15.5
2023-02-19T19:56:01.083Z,14.8
2023-02-19T20:01:01.067Z,14.2
2023-02-19T20:06:01.266Z,14.7
2023-02-19T20:11:06.075Z,13.5
2023-02-19T20:16:06.223Z,12.8
2023-02-19T20:21:01.511Z,13.8
2023-02-19T20:26:06.108Z,16.4
2023-02-19T20:31:01.132Z,16.9
2023-02-19T20:36:06.072Z,17.6
2023-02-19T20:41:06.082Z,19.1
2023-02-19T20:46:06.102Z,19.8
2023-02-19T20:51:01.066Z,18.1
2023-02-19T20:56:06.073Z,17.5
2023-02-19T21:01:06.068Z,17.2
2023-02-19T21:06:06.057Z,16.0
2023-02-19T21:11:01.056Z,15.6
2023-02-19T21:16:06.090Z,15.2
2023-02-19T21:21:06.065Z,15.6
2023-02-19T21:26:06.077Z,15.7
2023-02-19T21:31:01.134Z,17.6
2023-02-19T21:36:01.063Z,17.7
2023-02-19T21:41:01.108Z,17.8
2023-02-19T21:46:01.159Z,17.3
2023-02-19T21:51:01.084Z,16.1
2023-02-19T21:56:06.113Z,13.9
2023-02-19T22:01:02.405Z,12.8
2023-02-19T22:06:02.987Z,12.6
2023-02-19T22:11:06.057Z,13.0
2023-02-19T22:16:01.067Z,14.0
2023-02-19T22:21:06.058Z,14.4
2023-02-19T22:26:01.077Z,14.1
2023-02-19T22:31:01.470Z,12.8
2023-02-19T22:36:01.567Z,11.6
2023-02-19T22:41:01.060Z,11.8
2023-02-19T22:46:06.084Z,11.1
2023-02-19T22:51:01.083Z,11.3
2023-02-19T22:56:01.067Z,11.8
2023-02-19T23:01:01.639Z,12.4
2023-02-19T23:06:01.059Z,10.9
2023-02-19T23:11:01.505Z,11.0
2023-02-19T23:16:01.478Z,12.0
2023-02-19T23:21:06.714Z,12.6
2023-02-19T23:31:01.150Z,13.8
2023-02-19T23:36:01.145Z,14.6
2023-02-19T23:41:02.119Z,15.3
2023-02-19T23:46:01.066Z,15.2
2023-02-19T23:51:06.070Z,16.4
2023-02-19T23:56:01.075Z,18.5
